Time;durP1;ratioP1;P1;durP2;ratioP2;P2;SDS_P1;SDS_P2;PMS_P1;PMS_P2;Temp;Humidity;BMP_temperature;BMP_pressure;BME280_temperature;BME280_humidity;BME280_pressure;Samples;Min_cycle;Max_cycle;Signal;HPM_P1;HPM_P2
2023/06/18 00:00:59;;;;;;;7.78;6.97;;;23.10;55.10;;;;;;5111215;28;20239;-78
2023/06/18 00:03:26;;;;;;;7.90;6.55;;;23.10;55.10;;;;;;5115570;28;20260;-78
2023/06/18 00:05:54;;;;;;;8.32;6.10;;;23.10;55.20;;;;;;5115268;28;20193;-79
2023/06/18 00:08:23;;;;;;;8.95;6.50;;;23.10;55.20;;;;;;5096950;28;20225;-78
2023/06/18 00:10:50;;;;;;;10.45;6.43;;;23.10;55.20;;;;;;5114840;28;20228;-79
2023/06/18 00:13:17;;;;;;;7.57;6.78;;;23.20;55.30;;;;;;5115232;28;20245;-78
2023/06/18 00:15:44;;;;;;;6.80;6.07;;;23.10;55.30;;;;;;5115256;28;20268;-78
2023/06/18 00:18:12;;;;;;;9.73;6.70;;;23.10;55.30;;;;;;5096625;28;20252;-78
2023/06/18 00:20:39;;;;;;;11.15;6.57;;;23.10;55.40;;;;;;5096748;28;20193;-79
2023/06/18 00:23:06;;;;;;;8.77;6.78;;;23.10;55.40;;;;;;5114531;28;20298;-78
2023/06/18 00:25:36;;;;;;;7.45;6.75;;;23.10;55.40;;;;;;5096504;28;20189;-78
2023/06/18 00:28:03;;;;;;;8.13;6.85;;;23.10;55.40;;;;;;5097028;28;20216;-79
2023/06/18 00:30:31;;;;;;;10.48;6.75;;;23.10;55.40;;;;;;5114776;28;20267;-78
2023/06/18 00:32:59;;;;;;;7.20;6.45;;;23.10;55.50;;;;;;5114662;28;20220;-79
2023/06/18 00:35:26;;;;;;;7.68;6.78;;;23.10;55.50;;;;;;5096448;28;20200;-78
2023/06/18 00:37:54;;;;;;;8.00;6.47;;;23.10;55.50;;;;;;5129924;27;20311;-78
2023/06/18 00:40:21;;;;;;;8.43;6.38;;;23.10;55.50;;;;;;5124312;27;20583;-78
2023/06/18 00:42:52;;;;;;;8.85;6.97;;;23.10;55.60;;;;;;5114200;28;20304;-78
2023/06/18 00:45:20;;;;;;;7.28;6.53;;;23.10;55.60;;;;;;5114645;28;20186;-78
2023/06/18 00:47:48;;;;;;;8.35;6.68;;;23.10;55.60;;;;;;5114466;28;20303;-78
2023/06/18 00:50:17;;;;;;;7.25;6.55;;;23.10;55.60;;;;;;5114356;28;20280;-79
2023/06/18 00:52:47;;;;;;;8.52;7.07;;;23.00;55.60;;;;;;5114637;28;20213;-79
2023/06/18 00:55:16;;;;;;;7.47;6.65;;;23.10;55.70;;;;;;5096236;28;20623;-78
2023/06/18 00:57:45;;;;;;;10.52;7.13;;;23.00;55.60;;;;;;5113890;28;20309;-78
2023/06/18 01:00:15;;;;;;;8.73;6.50;;;23.00;55.60;;;;;;5113345;28;20276;-78
2023/06/18 01:02:49;;;;;;;7.30;6.47;;;23.10;55.80;;;;;;5114281;28;20221;-78
2023/06/18 01:05:16;;;;;;;8.20;6.18;;;23.00;55.70;;;;;;5114159;28;20185;-79
2023/06/18 01:07:47;;;;;;;7.15;6.40;;;23.00;55.70;;;;;;5096124;28;20210;-78
2023/06/18 01:10:14;;;;;;;6.95;6.25;;;23.00;55.70;;;;;;5111390;28;20181;-79
2023/06/18 01:12:42;;;;;;;8.90;6.63;;;23.00;55.70;;;;;;5113704;28;20715;-79
2023/06/18 01:15:10;;;;;;;8.13;6.68;;;23.00;55.70;;;;;;5113865;28;20247;-78
2023/06/18 01:17:40;;;;;;;7.55;6.35;;;23.00;55.70;;;;;;5113733;28;20224;-79
2023/06/18 01:20:10;;;;;;;7.13;6.43;;;23.00;56.40;;;;;;5113920;28;20221;-79
2023/06/18 01:22:42;;;;;;;7.60;6.80;;;23.00;55.80;;;;;;5113709;28;20235;-78
2023/06/18 01:25:10;;;;;;;9.73;7.00;;;23.00;55.90;;;;;;5095725;28;20219;-79
2023/06/18 01:27:40;;;;;;;7.13;6.43;;;23.00;55.90;;;;;;5113300;28;20224;-79
2023/06/18 01:30:10;;;;;;;7.25;6.45;;;23.00;55.90;;;;;;5113602;28;20254;-79
2023/06/18 01:32:39;;;;;;;7.70;6.35;;;23.00;55.90;;;;;;5113695;28;20258;-78
2023/06/18 01:35:14;;;;;;;7.35;6.55;;;23.00;55.90;;;;;;5113637;28;20264;-79
2023/06/18 01:37:48;;;;;;;7.80;6.50;;;23.00;55.90;;;;;;5113391;28;20236;-79
2023/06/18 01:40:33;;;;;;;7.18;6.47;;;23.00;55.90;;;;;;5095228;28;20193;-78
2023/06/18 01:43:08;;;;;;;7.47;6.70;;;23.00;56.00;;;;;;5079491;28;20213;-78
2023/06/18 01:45:41;;;;;;;9.32;6.30;;;23.00;55.90;;;;;;5113076;28;20269;-78
2023/06/18 01:48:12;;;;;;;7.53;6.22;;;23.00;56.00;;;;;;5113081;28;20258;-78
2023/06/18 01:50:41;;;;;;;7.38;6.63;;;23.00;56.00;;;;;;5113304;28;20228;-77
2023/06/18 01:53:10;;;;;;;6.60;5.95;;;23.00;56.00;;;;;;5113366;28;20248;-78
2023/06/18 01:55:38;;;;;;;7.45;6.75;;;23.00;56.00;;;;;;5113094;28;20699;-78
2023/06/18 01:58:06;;;;;;;7.20;6.50;;;23.00;56.70;;;;;;5112866;28;20240;-78
2023/06/18 02:00:33;;;;;;;8.65;6.43;;;22.90;55.90;;;;;;5112801;28;20670;-78
2023/06/18 02:03:00;;;;;;;7.47;6.55;;;23.00;56.00;;;;;;5113308;28;20624;-78
2023/06/18 02:05:29;;;;;;;7.78;6.60;;;23.00;56.00;;;;;;5112824;28;20275;-78
2023/06/18 02:07:56;;;;;;;7.50;6.43;;;23.00;56.00;;;;;;5113076;28;20249;-78
2023/06/18 02:10:24;;;;;;;7.38;5.93;;;23.00;56.10;;;;;;5094514;28;20284;-78
2023/06/18 02:12:51;;;;;;;8.50;6.53;;;23.00;56.10;;;;;;5112914;28;20219;-78
2023/06/18 02:15:19;;;;;;;8.20;6.22;;;22.90;56.00;;;;;;5094636;28;20276;-78
2023/06/18 02:17:46;;;;;;;9.45;6.57;;;22.90;56.00;;;;;;5094666;28;20237;-78
2023/06/18 02:20:13;;;;;;;6.65;5.97;;;22.90;56.00;;;;;;5077602;28;20197;-78
2023/06/18 02:22:42;;;;;;;7.30;6.60;;;22.90;56.00;;;;;;5094389;28;21056;-81
2023/06/18 02:25:10;;;;;;;6.97;6.28;;;22.90;56.10;;;;;;5095026;28;20279;-78
2023/06/18 02:27:37;;;;;;;7.30;6.60;;;22.90;56.10;;;;;;5112819;28;20301;-78
2023/06/18 02:30:06;;;;;;;7.55;6.82;;;22.90;56.10;;;;;;5112896;28;20276;-78
2023/06/18 02:32:36;;;;;;;6.80;6.03;;;22.90;56.10;;;;;;5112922;28;20225;-78
2023/06/18 02:35:04;;;;;;;6.65;5.93;;;22.90;56.10;;;;;;5112484;28;20208;-78
2023/06/18 02:37:31;;;;;;;7.68;6.20;;;22.90;56.10;;;;;;5112227;28;20600;-78
2023/06/18 02:39:59;;;;;;;7.75;5.90;;;22.90;56.10;;;;;;5112607;28;20185;-78
2023/06/18 02:42:28;;;;;;;6.72;5.88;;;22.90;56.10;;;;;;5112912;28;20295;-79
2023/06/18 02:44:55;;;;;;;7.47;6.78;;;22.90;56.10;;;;;;5112655;28;20223;-79
2023/06/18 02:47:22;;;;;;;7.57;6.10;;;22.90;56.10;;;;;;5112824;28;20300;-78
2023/06/18 02:49:49;;;;;;;7.47;6.68;;;22.90;56.10;;;;;;5112269;28;20730;-78
2023/06/18 02:52:16;;;;;;;8.07;6.95;;;22.90;56.10;;;;;;5112618;28;20220;-79
2023/06/18 02:54:44;;;;;;;6.93;6.18;;;22.80;56.00;;;;;;5112350;28;20196;-78
2023/06/18 02:57:12;;;;;;;6.35;5.70;;;22.90;56.10;;;;;;5112478;28;20277;-77
2023/06/18 02:59:39;;;;;;;8.60;6.07;;;22.90;56.10;;;;;;5112053;28;20280;-78
2023/06/18 03:02:06;;;;;;;7.00;6.30;;;22.80;56.10;;;;;;5112586;28;20300;-78
2023/06/18 03:04:33;;;;;;;7.00;6.18;;;22.80;56.10;;;;;;5112104;28;20185;-78
2023/06/18 03:07:01;;;;;;;7.43;6.47;;;22.90;56.20;;;;;;5112559;28;20296;-78
2023/06/18 03:09:29;;;;;;;7.35;6.65;;;22.80;56.20;;;;;;5112129;28;20273;-78
2023/06/18 03:11:56;;;;;;;7.22;6.28;;;22.80;56.10;;;;;;5112087;28;20300;-78
2023/06/18 03:14:25;;;;;;;7.15;6.45;;;22.80;56.10;;;;;;5112473;28;20272;-78
2023/06/18 03:16:52;;;;;;;6.63;6.03;;;22.80;56.10;;;;;;5112183;28;20295;-78
2023/06/18 03:19:19;;;;;;;8.13;6.50;;;22.80;56.20;;;;;;5112025;28;20660;-78
2023/06/18 03:21:46;;;;;;;6.85;6.18;;;22.80;56.20;;;;;;5112750;28;20213;-78
2023/06/18 03:24:14;;;;;;;7.10;6.40;;;22.80;56.20;;;;;;5116029;28;20323;-78
2023/06/18 03:26:43;;;;;;;7.10;6.28;;;22.80;56.20;;;;;;5115975;28;20288;-78
2023/06/18 03:29:10;;;;;;;7.57;6.38;;;22.80;56.20;;;;;;5097986;28;20645;-78
2023/06/18 03:31:40;;;;;;;7.10;6.20;;;22.80;56.20;;;;;;5116024;28;20272;-78
2023/06/18 03:34:08;;;;;;;7.35;6.38;;;22.80;56.90;;;;;;5115990;28;20212;-78
2023/06/18 03:36:39;;;;;;;6.97;6.28;;;22.80;56.20;;;;;;5116033;28;20558;-78
2023/06/18 03:39:06;;;;;;;6.43;5.82;;;22.80;56.20;;;;;;5115721;28;20304;-78
2023/06/18 03:41:33;;;;;;;7.38;6.68;;;22.80;56.20;;;;;;5115604;28;20225;-78
2023/06/18 03:44:00;;;;;;;6.13;5.50;;;22.80;56.20;;;;;;5115382;28;20638;-78
2023/06/18 03:46:27;;;;;;;6.28;5.68;;;22.80;56.30;;;;;;5097591;28;20272;-78
2023/06/18 03:48:57;;;;;;;10.98;6.63;;;22.80;56.30;;;;;;5115709;28;20272;-78
2023/06/18 03:51:24;;;;;;;6.60;5.78;;;22.80;56.20;;;;;;5115313;28;20284;-78
2023/06/18 03:53:52;;;;;;;7.65;6.47;;;22.80;56.20;;;;;;5115913;28;20617;-78
2023/06/18 03:56:19;;;;;;;6.95;6.28;;;22.80;56.30;;;;;;5115215;28;20730;-78
2023/06/18 03:58:48;;;;;;;7.15;6.45;;;22.80;56.30;;;;;;5115168;28;20233;-78
2023/06/18 04:01:15;;;;;;;8.73;6.82;;;22.80;56.30;;;;;;5097611;28;20277;-78
2023/06/18 04:03:42;;;;;;;9.32;6.38;;;22.80;56.40;;;;;;5097679;28;20245;-78
2023/06/18 04:06:11;;;;;;;7.00;6.25;;;22.80;56.30;;;;;;5115082;28;20185;-77
2023/06/18 04:08:38;;;;;;;7.90;6.40;;;22.80;56.30;;;;;;5115299;28;20244;-78
2023/06/18 04:11:05;;;;;;;6.30;5.70;;;22.70;56.20;;;;;;5115572;28;20221;-78
2023/06/18 04:13:32;;;;;;;7.20;6.35;;;22.80;56.40;;;;;;5115231;28;20304;-78
2023/06/18 04:15:59;;;;;;;9.55;6.68;;;22.70;56.30;;;;;;5115168;28;20191;-78
2023/06/18 04:18:26;;;;;;;8.35;6.47;;;22.70;56.20;;;;;;5115162;28;20237;-79
2023/06/18 04:20:53;;;;;;;7.57;6.00;;;22.70;56.30;;;;;;5114863;28;20652;-78
2023/06/18 04:23:23;;;;;;;7.75;6.57;;;22.70;56.30;;;;;;5114907;28;20260;-78
2023/06/18 04:25:50;;;;;;;7.32;6.10;;;22.80;56.40;;;;;;5115042;28;20266;-78
2023/06/18 04:28:17;;;;;;;7.18;6.05;;;22.70;56.30;;;;;;5114352;28;20303;-78
2023/06/18 04:30:45;;;;;;;6.57;5.97;;;22.70;56.20;;;;;;5114706;28;20288;-78
2023/06/18 04:33:12;;;;;;;6.55;5.90;;;22.70;56.30;;;;;;5096358;28;20244;-78
2023/06/18 04:35:39;;;;;;;7.15;6.22;;;22.70;56.30;;;;;;5114466;28;20273;-78
2023/06/18 04:38:06;;;;;;;8.40;6.57;;;22.70;56.30;;;;;;5114274;28;20977;-77
2023/06/18 04:40:35;;;;;;;7.57;6.45;;;22.70;56.30;;;;;;5114793;28;20268;-78
2023/06/18 04:43:03;;;;;;;6.95;6.28;;;22.70;56.30;;;;;;5114349;28;20754;-78
2023/06/18 04:45:30;;;;;;;7.43;6.53;;;22.70;56.30;;;;;;5114608;28;20273;-78
2023/06/18 04:47:57;;;;;;;6.90;6.20;;;22.70;56.30;;;;;;5114401;28;20213;-77
2023/06/18 04:50:24;;;;;;;8.43;6.53;;;22.70;56.30;;;;;;5096324;28;20201;-78
2023/06/18 04:52:52;;;;;;;8.02;6.28;;;22.70;56.40;;;;;;5114546;28;20221;-78
2023/06/18 04:55:19;;;;;;;6.68;5.88;;;22.70;56.30;;;;;;5114479;28;20272;-77
2023/06/18 04:57:48;;;;;;;7.30;6.03;;;22.70;56.30;;;;;;5095867;28;20312;-78
2023/06/18 05:00:17;;;;;;;6.95;6.22;;;22.70;56.90;;;;;;5113791;28;20205;-78
2023/06/18 05:02:45;;;;;;;6.97;6.28;;;22.70;56.30;;;;;;5113960;28;20722;-78
2023/06/18 05:05:12;;;;;;;7.53;5.63;;;22.70;56.30;;;;;;5114105;28;20272;-79
2023/06/18 05:07:39;;;;;;;6.88;6.18;;;22.70;56.30;;;;;;5113846;28;20266;-78
2023/06/18 05:10:07;;;;;;;6.93;6.15;;;22.70;56.30;;;;;;5114006;28;20272;-78
2023/06/18 05:12:34;;;;;;;6.50;5.80;;;22.60;56.20;;;;;;5113950;28;20221;-78
2023/06/18 05:15:03;;;;;;;7.57;6.10;;;22.70;56.40;;;;;;5114077;28;20268;-78
2023/06/18 05:17:30;;;;;;;7.97;6.15;;;22.70;56.30;;;;;;5114078;28;20284;-78
2023/06/18 05:19:57;;;;;;;8.27;5.95;;;22.60;56.20;;;;;;5113808;28;20304;-78
2023/06/18 05:22:24;;;;;;;7.00;6.15;;;22.60;56.20;;;;;;5113653;28;20300;-78
2023/06/18 05:24:51;;;;;;;7.28;6.15;;;22.60;56.20;;;;;;5113250;28;20204;-78
2023/06/18 05:27:19;;;;;;;7.18;6.05;;;22.60;56.20;;;;;;5113568;28;20303;-78
2023/06/18 05:29:46;;;;;;;8.23;6.35;;;22.60;56.20;;;;;;5113147;28;20248;-78
2023/06/18 05:32:18;;;;;;;6.75;6.15;;;22.60;56.20;;;;;;5113674;28;20300;-78
2023/06/18 05:34:45;;;;;;;6.47;5.78;;;22.60;56.20;;;;;;5113356;28;20614;-78
2023/06/18 05:37:12;;;;;;;6.28;5.53;;;22.60;56.80;;;;;;5113216;28;20308;-78
2023/06/18 05:39:39;;;;;;;6.88;6.07;;;22.70;56.30;;;;;;5113236;28;20710;-78
2023/06/18 05:42:07;;;;;;;6.63;5.75;;;22.60;56.20;;;;;;5113429;28;20217;-78
2023/06/18 05:44:35;;;;;;;7.18;6.47;;;22.60;56.20;;;;;;5108498;28;20269;-78
2023/06/18 05:47:02;;;;;;;7.85;6.22;;;22.60;56.20;;;;;;5113478;28;20299;-78
2023/06/18 05:49:31;;;;;;;6.75;5.97;;;22.60;56.20;;;;;;5095396;28;20220;-78
2023/06/18 05:51:58;;;;;;;9.82;5.88;;;22.60;56.20;;;;;;5113329;28;20213;-78
2023/06/18 05:54:26;;;;;;;6.90;6.00;;;22.60;56.20;;;;;;5113286;28;20284;-77
2023/06/18 05:56:53;;;;;;;6.68;6.07;;;22.60;56.20;;;;;;5113255;28;20197;-78
2023/06/18 05:59:21;;;;;;;6.95;6.13;;;22.60;56.80;;;;;;5113065;28;20300;-78
2023/06/18 06:01:48;;;;;;;7.57;6.05;;;22.60;56.10;;;;;;5107687;28;20281;-78
2023/06/18 06:04:15;;;;;;;8.30;6.45;;;22.60;56.20;;;;;;5112915;28;20730;-78
2023/06/18 06:06:44;;;;;;;6.85;6.18;;;22.60;56.20;;;;;;5112633;28;20181;-78
2023/06/18 06:09:11;;;;;;;7.10;6.03;;;22.60;56.20;;;;;;5113064;28;20272;-78
2023/06/18 06:11:39;;;;;;;6.97;6.22;;;22.60;56.10;;;;;;5112621;28;20655;-78
2023/06/18 06:14:06;;;;;;;6.60;5.85;;;22.60;56.20;;;;;;5112536;28;20304;-78
2023/06/18 06:16:33;;;;;;;7.15;5.68;;;22.60;56.20;;;;;;5112896;28;20276;-78
2023/06/18 06:19:00;;;;;;;8.23;5.80;;;22.60;56.20;;;;;;5113021;28;20319;-78
2023/06/18 06:21:27;;;;;;;6.75;5.95;;;22.60;56.50;;;;;;5112899;28;20236;-78
2023/06/18 06:23:56;;;;;;;9.15;6.45;;;22.60;56.20;;;;;;5094265;28;20292;-78
2023/06/18 06:26:24;;;;;;;6.45;5.85;;;22.60;56.80;;;;;;5112620;28;20193;-78
2023/06/18 06:28:51;;;;;;;6.55;5.85;;;22.60;56.80;;;;;;5112885;28;20244;-78
2023/06/18 06:31:18;;;;;;;5.88;5.25;;;22.60;56.20;;;;;;5112890;28;20268;-77
2023/06/18 06:33:46;;;;;;;7.00;5.35;;;22.60;56.20;;;;;;5113040;28;20221;-77
2023/06/18 06:36:13;;;;;;;8.82;5.80;;;22.50;56.10;;;;;;5112791;28;20199;-78
2023/06/18 06:38:40;;;;;;;6.53;5.78;;;22.60;56.20;;;;;;5094631;28;20225;-78
2023/06/18 06:41:09;;;;;;;6.72;5.78;;;22.60;56.20;;;;;;5112720;28;20216;-77
2023/06/18 06:43:36;;;;;;;8.23;5.93;;;22.60;56.20;;;;;;5112244;28;20227;-78
2023/06/18 06:46:04;;;;;;;6.60;5.75;;;22.60;56.20;;;;;;5112300;28;20235;-78
2023/06/18 06:48:31;;;;;;;6.43;5.82;;;22.60;56.20;;;;;;5112673;28;20213;-78
2023/06/18 06:50:58;;;;;;;7.03;5.60;;;22.60;56.30;;;;;;5112322;28;20196;-78
2023/06/18 06:53:25;;;;;;;9.05;6.05;;;22.60;56.20;;;;;;5094504;28;20299;-78
2023/06/18 06:55:53;;;;;;;6.78;5.63;;;22.60;56.20;;;;;;5112656;28;20272;-78
2023/06/18 06:58:22;;;;;;;6.95;6.30;;;22.60;56.20;;;;;;5115314;28;20300;-78
2023/06/18 07:00:50;;;;;;;7.80;6.70;;;22.60;56.20;;;;;;5116764;28;20272;-79
2023/06/18 07:03:17;;;;;;;8.48;6.20;;;22.60;56.20;;;;;;5116712;28;20248;-78
2023/06/18 07:05:45;;;;;;;6.75;5.75;;;22.60;56.20;;;;;;5116061;28;20288;-78
2023/06/18 07:08:12;;;;;;;6.78;5.80;;;22.60;56.20;;;;;;5116458;28;20298;-79
2023/06/18 07:10:39;;;;;;;8.88;5.88;;;22.60;56.20;;;;;;5116462;28;20185;-78
2023/06/18 07:13:06;;;;;;;7.68;6.35;;;22.60;56.20;;;;;;5116286;28;20279;-78
2023/06/18 07:15:36;;;;;;;6.43;5.80;;;22.60;56.20;;;;;;5097858;28;20197;-78
2023/06/18 07:18:03;;;;;;;10.30;5.75;;;22.60;56.20;;;;;;5116340;28;20213;-78
2023/06/18 07:20:30;;;;;;;8.55;6.47;;;22.60;56.20;;;;;;5116277;28;20299;-78
2023/06/18 07:22:57;;;;;;;6.03;5.43;;;22.60;56.20;;;;;;5116068;28;20312;-78
2023/06/18 07:25:24;;;;;;;6.93;5.57;;;22.60;56.80;;;;;;5115971;28;20737;-78
2023/06/18 07:27:51;;;;;;;7.35;5.60;;;22.60;56.20;;;;;;5115937;28;20630;-78
2023/06/18 07:30:19;;;;;;;7.88;6.00;;;22.60;56.20;;;;;;5115761;28;20242;-78
2023/06/18 07:32:47;;;;;;;6.00;5.15;;;22.70;56.20;;;;;;5115861;28;20388;-78
2023/06/18 07:35:15;;;;;;;7.00;6.30;;;22.60;56.20;;;;;;5097781;28;20612;-78
2023/06/18 07:37:42;;;;;;;6.18;5.57;;;22.70;56.20;;;;;;5110751;28;20297;-78
2023/06/18 07:40:10;;;;;;;6.55;5.95;;;22.60;56.10;;;;;;5115784;28;20602;-77
2023/06/18 07:42:37;;;;;;;6.10;5.50;;;22.70;56.20;;;;;;5115836;28;20299;-78
2023/06/18 07:45:05;;;;;;;6.38;5.60;;;22.70;56.20;;;;;;5115830;28;20264;-78
2023/06/18 07:47:32;;;;;;;7.60;6.50;;;22.70;56.20;;;;;;5115160;28;20308;-78
2023/06/18 07:50:01;;;;;;;7.68;6.25;;;22.70;56.20;;;;;;5115759;28;20189;-78
2023/06/18 07:52:28;;;;;;;6.38;5.78;;;22.70;56.20;;;;;;5115325;28;20765;-78
2023/06/18 07:54:56;;;;;;;6.32;5.72;;;22.70;56.20;;;;;;5115631;28;20268;-78
2023/06/18 07:57:23;;;;;;;7.47;5.78;;;22.70;56.20;;;;;;5115560;28;20296;-78
2023/06/18 07:59:50;;;;;;;6.13;5.53;;;22.70;56.10;;;;;;5115393;28;20309;-78
2023/06/18 08:02:18;;;;;;;6.38;5.78;;;22.70;56.10;;;;;;5080769;28;20258;-78
2023/06/18 08:04:45;;;;;;;7.03;6.25;;;22.60;56.00;;;;;;5115362;28;20268;-78
2023/06/18 08:07:14;;;;;;;6.30;5.70;;;22.70;56.10;;;;;;5096962;28;20742;-78
2023/06/18 08:09:41;;;;;;;6.10;5.38;;;22.70;56.10;;;;;;5114994;28;20182;-78
2023/06/18 08:12:11;;;;;;;6.35;5.75;;;22.70;56.00;;;;;;5097454;28;20200;-79
2023/06/18 08:14:38;;;;;;;6.07;5.45;;;22.70;56.00;;;;;;5096891;28;20193;-78
2023/06/18 08:17:05;;;;;;;6.30;5.40;;;22.70;56.00;;;;;;5114862;28;20647;-78
2023/06/18 08:19:32;;;;;;;10.73;5.40;;;22.70;56.00;;;;;;5096666;28;20706;-78
2023/06/18 08:21:59;;;;;;;6.90;5.70;;;22.70;56.60;;;;;;5096714;28;20204;-78
2023/06/18 08:24:28;;;;;;;5.70;5.18;;;22.70;56.00;;;;;;5114781;28;20268;-78
2023/06/18 08:26:55;;;;;;;6.45;5.43;;;22.70;55.90;;;;;;5115225;28;20276;-78
2023/06/18 08:29:22;;;;;;;8.00;5.90;;;22.70;55.90;;;;;;5096926;28;20250;-78
2023/06/18 08:31:49;;;;;;;5.97;5.35;;;22.70;55.90;;;;;;5096793;28;20688;-78
2023/06/18 08:34:17;;;;;;;6.45;5.40;;;22.70;55.90;;;;;;5115215;28;20703;-78
2023/06/18 08:36:46;;;;;;;6.78;5.88;;;22.70;56.60;;;;;;5114529;28;20643;-78
2023/06/18 08:39:14;;;;;;;6.53;5.38;;;22.70;55.90;;;;;;5096522;28;20229;-78
2023/06/18 08:41:45;;;;;;;10.25;5.70;;;22.70;55.90;;;;;;5114607;28;20220;-78
2023/06/18 08:44:12;;;;;;;8.40;5.53;;;22.70;55.90;;;;;;5114819;28;20220;-78
2023/06/18 08:46:42;;;;;;;9.02;5.82;;;22.70;55.90;;;;;;5096703;28;20189;-78
2023/06/18 08:49:11;;;;;;;7.10;5.30;;;22.70;55.90;;;;;;5114238;28;20221;-79
2023/06/18 08:51:39;;;;;;;6.05;5.35;;;22.70;55.90;;;;;;5096115;28;20630;-78
2023/06/18 08:54:10;;;;;;;6.10;5.50;;;22.70;55.90;;;;;;5095989;28;20679;-78
2023/06/18 08:56:43;;;;;;;6.30;5.53;;;22.70;55.90;;;;;;5114225;28;20272;-79
2023/06/18 08:59:13;;;;;;;5.78;5.28;;;22.70;56.50;;;;;;5114342;28;20317;-78
2023/06/18 09:01:42;;;;;;;7.53;6.00;;;22.70;55.90;;;;;;5096256;28;20269;-78
2023/06/18 09:04:10;;;;;;;6.50;5.88;;;22.70;55.80;;;;;;5114005;28;20307;-77
2023/06/18 09:06:38;;;;;;;6.07;5.50;;;22.70;55.80;;;;;;5095989;28;20280;-78
2023/06/18 09:09:06;;;;;;;7.25;5.60;;;22.80;55.90;;;;;;5113307;28;20220;-79
2023/06/18 09:11:34;;;;;;;6.70;6.10;;;22.70;55.80;;;;;;5113960;28;20219;-78
2023/06/18 09:14:02;;;;;;;6.05;5.47;;;22.80;55.90;;;;;;5095560;28;20262;-78
2023/06/18 09:16:31;;;;;;;5.72;5.15;;;22.70;55.80;;;;;;5113836;28;20280;-78
2023/06/18 09:18:58;;;;;;;6.65;5.90;;;22.70;55.80;;;;;;5113961;28;20296;-78
2023/06/18 09:21:38;;;;;;;6.15;5.55;;;22.70;55.80;;;;;;5113019;28;20284;-78
2023/06/18 09:24:07;;;;;;;8.18;5.70;;;22.70;55.80;;;;;;5113474;28;20232;-79
2023/06/18 09:26:35;;;;;;;6.78;5.55;;;22.70;56.40;;;;;;5113445;28;20250;-79
2023/06/18 09:29:06;;;;;;;6.70;5.70;;;22.70;55.80;;;;;;5113526;28;20252;-78
2023/06/18 09:31:44;;;;;;;9.02;5.70;;;22.70;55.80;;;;;;5113696;28;20232;-78
2023/06/18 09:34:15;;;;;;;8.88;5.78;;;22.80;55.90;;;;;;5113688;28;20209;-78
2023/06/18 09:36:43;;;;;;;8.40;5.93;;;22.70;55.80;;;;;;5113545;28;20280;-78
2023/06/18 09:39:21;;;;;;;6.32;5.60;;;22.70;55.90;;;;;;5095433;28;20220;-78
2023/06/18 09:41:49;;;;;;;6.95;5.78;;;22.70;55.90;;;;;;5109407;28;20694;-78
2023/06/18 09:44:18;;;;;;;9.95;6.00;;;22.70;55.90;;;;;;5113358;28;20217;-78
2023/06/18 09:46:48;;;;;;;6.15;5.22;;;22.70;55.90;;;;;;5113448;28;20194;-78
2023/06/18 09:49:17;;;;;;;8.55;6.05;;;22.80;56.00;;;;;;5113132;28;20296;-78
2023/06/18 09:51:45;;;;;;;7.25;5.40;;;22.70;55.90;;;;;;5113111;28;20635;-78
2023/06/18 09:54:13;;;;;;;6.38;5.75;;;22.70;55.90;;;;;;5094854;28;20213;-78
2023/06/18 09:56:55;;;;;;;6.65;5.45;;;22.70;55.90;;;;;;5112864;28;20216;-78
2023/06/18 09:59:23;;;;;;;7.55;5.63;;;22.70;56.00;;;;;;5113205;28;20248;-78
2023/06/18 10:01:53;;;;;;;9.50;5.55;;;22.70;56.00;;;;;;5113061;28;20276;-78
2023/06/18 10:04:20;;;;;;;6.78;5.70;;;22.70;56.00;;;;;;5113155;28;20296;-78
2023/06/18 10:06:51;;;;;;;7.13;6.40;;;22.70;56.10;;;;;;5112892;28;20193;-77
2023/06/18 10:09:20;;;;;;;6.97;5.45;;;22.70;56.10;;;;;;5094451;28;20217;-78
2023/06/18 10:11:50;;;;;;;8.65;5.97;;;22.70;56.10;;;;;;5094996;28;20613;-78
2023/06/18 10:14:22;;;;;;;8.45;5.55;;;22.70;56.20;;;;;;5112606;28;20710;-79
2023/06/18 10:16:55;;;;;;;6.28;5.68;;;22.70;56.20;;;;;;5112654;28;20207;-78
2023/06/18 10:19:25;;;;;;;6.65;5.88;;;22.70;56.20;;;;;;5113217;28;20217;-78
2023/06/18 10:21:58;;;;;;;6.13;5.53;;;22.70;56.20;;;;;;5113010;28;20197;-78
2023/06/18 10:24:40;;;;;;;6.95;5.93;;;22.70;56.30;;;;;;5112718;28;20229;-79
2023/06/18 10:27:08;;;;;;;6.43;5.60;;;22.70;56.40;;;;;;5113008;28;20269;-78
2023/06/18 10:29:35;;;;;;;6.68;5.50;;;22.70;56.40;;;;;;5094479;28;20739;-78
2023/06/18 10:32:06;;;;;;;6.80;5.70;;;22.70;56.40;;;;;;5112538;28;20714;-79
2023/06/18 10:34:34;;;;;;;6.30;5.40;;;22.70;56.50;;;;;;5112682;28;20651;-78
2023/06/18 10:37:02;;;;;;;6.80;5.40;;;22.70;56.50;;;;;;5077880;28;20250;-78
2023/06/18 10:39:30;;;;;;;7.68;5.65;;;22.70;56.50;;;;;;5112806;28;20304;-78
2023/06/18 10:42:10;;;;;;;7.38;6.10;;;22.70;56.60;;;;;;5112347;28;20224;-78
2023/06/18 10:44:52;;;;;;;6.30;5.65;;;22.70;56.70;;;;;;5112194;28;20283;-78
2023/06/18 10:47:24;;;;;;;10.02;5.40;;;22.70;56.70;;;;;;5112571;28;20193;-78
2023/06/18 10:50:11;;;;;;;6.63;5.88;;;22.70;56.70;;;;;;5094709;28;20712;-78
2023/06/18 10:52:40;;;;;;;7.03;5.80;;;22.70;56.70;;;;;;5112203;28;20213;-78
2023/06/18 10:55:08;;;;;;;7.07;5.60;;;22.70;56.80;;;;;;5112538;28;20272;-78
2023/06/18 10:57:37;;;;;;;10.23;5.75;;;22.70;56.80;;;;;;5112559;28;20765;-78
2023/06/18 11:00:16;;;;;;;6.85;6.10;;;22.70;56.90;;;;;;5112177;28;20701;-79
2023/06/18 11:02:46;;;;;;;7.75;5.82;;;22.70;57.00;;;;;;5112494;28;20216;-78
2023/06/18 11:05:17;;;;;;;6.50;5.38;;;22.70;56.90;;;;;;5112574;28;20185;-78
2023/06/18 11:07:59;;;;;;;7.38;6.03;;;22.70;56.90;;;;;;5112213;28;20220;-78
2023/06/18 11:10:33;;;;;;;8.10;6.05;;;22.70;57.00;;;;;;5112108;28;20280;-78
2023/06/18 11:13:02;;;;;;;6.70;5.85;;;22.70;57.00;;;;;;5112377;28;20213;-78
2023/06/18 11:15:29;;;;;;;7.93;6.15;;;22.70;57.00;;;;;;5112000;28;20228;-78
2023/06/18 11:18:01;;;;;;;7.78;6.10;;;22.70;57.00;;;;;;5112090;28;20646;-78
2023/06/18 11:20:30;;;;;;;7.03;5.57;;;22.70;57.10;;;;;;5112311;28;20303;-78
2023/06/18 11:23:00;;;;;;;6.93;5.50;;;22.70;57.00;;;;;;5111932;28;20229;-78
2023/06/18 11:25:28;;;;;;;6.50;5.90;;;22.70;57.00;;;;;;5112378;28;20189;-78
2023/06/18 11:27:58;;;;;;;8.98;5.63;;;22.70;57.10;;;;;;5111918;28;20300;-78
2023/06/18 11:30:26;;;;;;;8.85;6.20;;;22.70;57.10;;;;;;5112302;28;20189;-78
2023/06/18 11:32:53;;;;;;;8.30;6.05;;;22.70;57.10;;;;;;5112320;28;20217;-78
2023/06/18 11:35:22;;;;;;;6.03;5.43;;;22.70;57.20;;;;;;5112057;28;20189;-78
2023/06/18 11:37:49;;;;;;;8.07;5.93;;;22.70;57.20;;;;;;5093698;28;20220;-78
2023/06/18 11:40:16;;;;;;;6.65;5.95;;;22.70;57.20;;;;;;5112131;28;20220;-78
2023/06/18 11:42:53;;;;;;;7.63;6.05;;;22.60;57.10;;;;;;5112363;28;20300;-78
2023/06/18 11:45:22;;;;;;;6.97;6.05;;;22.60;57.20;;;;;;5097673;28;20283;-79
2023/06/18 11:47:51;;;;;;;6.45;5.80;;;22.60;57.20;;;;;;5097993;28;20300;-78
2023/06/18 11:50:20;;;;;;;7.30;6.20;;;22.70;57.30;;;;;;5115753;28;20216;-79
2023/06/18 11:52:49;;;;;;;8.40;6.28;;;22.70;57.30;;;;;;5115574;28;20231;-79
2023/06/18 11:55:18;;;;;;;6.35;5.47;;;22.60;57.20;;;;;;5097129;28;20193;-78
2023/06/18 11:57:46;;;;;;;7.65;6.00;;;22.60;57.20;;;;;;5115308;28;20219;-81
2023/06/18 12:00:14;;;;;;;7.55;6.20;;;22.60;57.30;;;;;;5115540;28;20224;-78
2023/06/18 12:02:42;;;;;;;6.45;5.53;;;22.70;57.40;;;;;;5115083;28;20229;-78
2023/06/18 12:05:10;;;;;;;9.45;5.53;;;22.60;57.40;;;;;;5115218;28;20686;-79
2023/06/18 12:07:41;;;;;;;6.90;5.82;;;22.70;57.50;;;;;;5115018;28;20190;-78
2023/06/18 12:10:12;;;;;;;6.95;5.72;;;22.60;57.50;;;;;;5097745;28;20613;-78
2023/06/18 12:12:49;;;;;;;6.68;5.97;;;22.60;57.50;;;;;;5115258;28;20182;-78
2023/06/18 12:15:19;;;;;;;7.03;5.95;;;22.70;57.80;;;;;;5114730;28;20667;-78
2023/06/18 12:17:57;;;;;;;7.80;5.93;;;22.70;58.30;;;;;;5115196;28;20554;-78
2023/06/18 12:20:28;;;;;;;6.28;5.68;;;22.60;57.70;;;;;;5115096;28;20212;-78
2023/06/18 12:22:56;;;;;;;6.82;5.82;;;22.60;57.70;;;;;;5114832;28;20229;-78
2023/06/18 12:25:28;;;;;;;8.82;5.85;;;22.60;57.70;;;;;;5115164;28;20227;-78
2023/06/18 12:27:57;;;;;;;6.65;5.88;;;22.60;57.70;;;;;;5114561;28;20720;-78
2023/06/18 12:30:29;;;;;;;6.80;6.10;;;22.60;57.80;;;;;;5114991;28;20209;-78
2023/06/18 12:33:04;;;;;;;7.32;5.55;;;22.60;57.80;;;;;;5114557;28;20843;-78
2023/06/18 12:35:31;;;;;;;6.60;6.00;;;22.60;57.80;;;;;;5078983;28;20197;-78
2023/06/18 12:38:03;;;;;;;6.32;5.60;;;22.70;57.80;;;;;;5114852;28;20209;-78
2023/06/18 12:40:35;;;;;;;6.50;5.47;;;22.60;57.70;;;;;;5114342;28;20300;-78
2023/06/18 12:43:09;;;;;;;6.72;5.75;;;22.60;57.70;;;;;;5114581;28;20209;-78
2023/06/18 12:45:38;;;;;;;8.38;5.97;;;22.60;57.70;;;;;;5062393;28;20192;-78
2023/06/18 12:48:13;;;;;;;6.93;5.70;;;22.60;57.70;;;;;;5114538;28;20623;-78
2023/06/18 12:50:45;;;;;;;7.25;5.85;;;22.60;57.70;;;;;;5096239;28;20220;-78
2023/06/18 12:53:14;;;;;;;6.65;5.85;;;22.60;57.80;;;;;;5114402;28;20292;-78